Terminal Aerodrome Forecast
Issued by NWS

Home | Current Version | Previous Version | Text Only | Print | Product List | Glossary On
Versions: 1 2 3 4 5 6 7 8 9 10 11 12
000
FTUS45 KPIH 312320
TAFSUN
TAF
KSUN 312320Z 0100/0124 VRB06KT P6SM SKC
     FM010400 33008KT P6SM FEW100
     FM011800 14008KT P6SM FEW120
      AMD LTD TO CLD VIS AND WIND 0105/0113=

USA.gov is the U.S. government's official web portal to all federal, state and local government web resources and services.